createdAt,value
2019-04-20T00:00:17.031Z,4.2813
2019-04-20T00:01:05.221Z,4.3015
2019-04-20T00:01:52.709Z,4.3015
2019-04-20T00:02:44.062Z,4.3015
2019-04-20T00:03:39.050Z,4.3015
2019-04-20T00:04:29.006Z,4.3115
2019-04-20T00:05:17.130Z,4.3115
2019-04-20T00:06:03.586Z,4.3015
2019-04-20T00:06:52.827Z,4.3115
2019-04-20T00:07:41.832Z,4.3015
2019-04-20T00:08:32.805Z,4.2813
2019-04-20T00:09:24.692Z,4.2612
2019-04-20T00:10:16.993Z,4.2410
2019-04-20T00:11:10.673Z,4.2310
2019-04-20T00:12:03.876Z,4.2209
2019-04-20T00:12:59.708Z,4.2007
2019-04-20T00:13:48.720Z,4.2310
2019-04-20T00:14:33.800Z,4.2007
2019-04-20T00:15:22.138Z,4.1907
2019-04-20T00:16:08.552Z,4.2007
2019-04-20T00:16:55.054Z,4.1907
2019-04-20T00:17:50.842Z,4.1907
2019-04-20T00:18:41.296Z,4.1907
2019-04-20T00:19:32.227Z,4.1705
2019-04-20T00:20:23.516Z,4.1705
2019-04-20T00:21:12.596Z,4.1705
2019-04-20T00:22:06.227Z,4.1705
2019-04-20T00:22:54.099Z,4.1605
2019-04-20T00:23:45.203Z,4.1302
2019-04-20T00:24:36.918Z,4.1403
2019-04-20T00:25:38.614Z,4.1302
2019-04-20T00:26:32.306Z,4.1302
2019-04-20T00:27:32.870Z,4.1000
2019-04-20T00:28:19.482Z,4.0799
2019-04-20T00:29:14.341Z,4.0598
2019-04-20T00:29:58.711Z,4.0598
2019-04-20T00:30:53.323Z,4.0598
2019-04-20T00:31:43.069Z,4.0598
2019-04-20T00:32:39.683Z,4.0396
2019-04-20T00:33:27.110Z,4.0396
2019-04-20T00:34:11.969Z,4.0396
2019-04-20T00:34:55.886Z,4.0094
2019-04-20T00:35:42.269Z,3.9893
2019-04-20T00:36:29.090Z,3.9893
2019-04-20T00:37:16.993Z,3.9792
2019-04-20T00:38:03.460Z,3.9792
2019-04-20T00:38:50.042Z,3.9792
2019-04-20T00:39:36.019Z,3.9490
2019-04-20T00:40:23.686Z,3.9490
2019-04-20T00:41:13.684Z,3.9389
2019-04-20T00:42:06.559Z,3.9188
2019-04-20T00:42:57.963Z,3.9188
2019-04-20T00:43:47.183Z,3.9188
2019-04-20T00:44:38.105Z,3.9087
2019-04-20T00:45:30.568Z,3.9087
2019-04-20T00:46:26.434Z,3.8785
2019-04-20T00:47:22.967Z,3.8785
2019-04-20T00:48:07.985Z,3.8785
2019-04-20T00:49:01.641Z,3.8684
2019-04-20T00:49:58.028Z,3.8684
2019-04-20T00:50:48.722Z,3.8684
2019-04-20T00:51:45.551Z,3.8684
2019-04-20T00:52:33.125Z,3.8583
2019-04-20T00:53:20.410Z,3.8382
2019-04-20T00:54:03.993Z,3.8583
2019-04-20T00:54:51.803Z,3.8382
2019-04-20T00:55:38.130Z,3.8382
2019-04-20T00:56:24.560Z,3.8382
2019-04-20T00:57:20.336Z,3.8382
2019-04-20T00:58:13.309Z,3.8080
2019-04-20T00:59:12.010Z,3.8080
2019-04-20T01:00:09.287Z,3.8281
2019-04-20T01:01:04.089Z,3.8080
2019-04-20T01:01:47.578Z,3.8080
2019-04-20T01:02:37.106Z,3.7979
2019-04-20T01:03:29.213Z,3.7979
2019-04-20T01:04:20.304Z,3.7979
2019-04-20T01:05:11.016Z,3.7979
2019-04-20T01:06:09.717Z,3.7778
2019-04-20T01:06:53.908Z,3.7677
2019-04-20T01:07:39.522Z,3.7677
2019-04-20T01:08:23.366Z,3.7778
2019-04-20T01:09:09.967Z,3.7576
2019-04-20T01:09:56.379Z,3.7677
2019-04-20T01:10:47.224Z,3.7677
2019-04-20T01:11:39.797Z,3.7576
2019-04-20T01:12:31.406Z,3.7375
2019-04-20T01:13:22.849Z,3.7375
2019-04-20T01:14:12.823Z,3.7375
2019-04-20T01:15:05.875Z,3.6972
2019-04-20T01:16:01.003Z,3.7274
2019-04-20T01:16:52.930Z,3.6871
2019-04-20T01:17:37.969Z,3.6871
2019-04-20T01:18:27.837Z,3.6569
2019-04-20T01:19:15.818Z,3.6771
2019-04-20T01:20:04.518Z,3.6771
2019-04-20T01:20:51.497Z,3.6771
2019-04-20T01:21:38.362Z,3.6771
2019-04-20T01:22:28.362Z,3.6569
2019-04-20T01:23:19.417Z,3.6569
2019-04-20T01:24:08.842Z,3.6771
2019-04-20T01:25:06.582Z,3.6569
2019-04-20T01:25:55.824Z,3.6569
2019-04-20T01:26:43.688Z,3.6469
2019-04-20T01:27:51.521Z,3.6469
2019-04-20T01:28:37.300Z,3.6267
2019-04-20T01:29:26.152Z,3.6166
2019-04-20T01:30:17.422Z,3.6166
2019-04-20T01:31:16.599Z,3.5864
2019-04-20T01:32:06.160Z,3.5864
2019-04-20T01:33:12.495Z,3.5965
2019-04-20T01:33:46.154Z,3.5864
2019-04-20T01:34:41.414Z,3.5864
2019-04-20T01:35:35.614Z,3.5864
2019-04-20T01:36:32.995Z,3.5562
2019-04-20T01:37:17.908Z,3.5764
2019-04-20T01:38:11.290Z,3.5764
2019-04-20T01:38:59.918Z,3.5461
2019-04-20T01:39:43.191Z,3.5461
2019-04-20T01:40:27.852Z,3.5059
2019-04-20T01:41:16.127Z,3.5059
2019-04-20T01:42:04.469Z,3.5059
2019-04-20T01:42:51.275Z,3.4958
2019-04-20T01:43:37.599Z,3.4958
2019-04-20T01:44:31.728Z,3.4958
2019-04-20T01:45:23.498Z,3.4958
2019-04-20T01:46:14.692Z,3.4756
2019-04-20T01:47:03.162Z,3.5059
2019-04-20T01:47:55.868Z,3.4958
2019-04-20T01:48:44.620Z,3.4756
2019-04-20T01:49:33.925Z,3.4656
2019-04-20T01:50:27.584Z,3.4756
2019-04-20T01:51:21.212Z,3.4656
2019-04-20T01:52:16.285Z,3.4656
2019-04-20T01:53:09.979Z,3.4656
2019-04-20T01:55:10.245Z,3.4656
2019-04-20T01:55:53.054Z,3.4656
2019-04-20T01:56:40.470Z,3.4656
2019-04-20T01:57:26.162Z,3.4656
2019-04-20T01:58:30.204Z,3.4656
2019-04-20T01:59:16.373Z,3.4656
2019-04-20T02:00:05.313Z,3.4454
2019-04-20T02:00:48.109Z,3.4354
2019-04-20T02:01:40.549Z,3.4354
2019-04-20T02:02:29.569Z,3.4354
2019-04-20T02:03:17.191Z,3.4354
2019-04-20T02:04:05.501Z,3.4152
2019-04-20T02:04:58.861Z,3.4152
2019-04-20T02:05:53.031Z,3.4052
2019-04-20T02:06:44.381Z,3.4052
2019-04-20T02:07:35.491Z,3.4052
2019-04-20T02:08:24.315Z,3.4152
2019-04-20T02:09:18.660Z,3.4152
2019-04-20T02:10:08.314Z,3.4052
2019-04-20T02:10:59.218Z,3.4052
2019-04-20T02:11:51.791Z,3.4052
2019-04-20T02:12:40.866Z,3.4152
2019-04-20T02:13:36.165Z,3.4152
2019-04-20T02:14:28.705Z,3.4354
2019-04-20T02:15:22.127Z,3.4354
2019-04-20T02:16:14.497Z,3.4656
2019-04-20T02:17:08.645Z,3.4756
2019-04-20T02:18:03.346Z,3.4656
2019-04-20T02:18:53.856Z,3.4958
2019-04-20T02:19:52.428Z,3.4756
2019-04-20T02:20:45.865Z,3.4756
2019-04-20T02:21:34.283Z,3.4756
2019-04-20T02:22:26.222Z,3.4756
2019-04-20T02:23:10.585Z,3.4656
2019-04-20T02:23:57.353Z,3.4656
2019-04-20T02:24:42.615Z,3.4454
2019-04-20T02:25:29.139Z,3.4454
2019-04-20T02:26:15.986Z,3.4656
2019-04-20T02:27:02.389Z,3.4354
2019-04-20T02:27:54.946Z,3.4656
2019-04-20T02:29:07.708Z,3.4656
2019-04-20T02:29:50.259Z,3.5059
2019-04-20T02:31:23.090Z,3.5260
2019-04-20T02:32:06.648Z,3.5461
2019-04-20T02:32:36.273Z,3.5562
2019-04-20T02:33:42.464Z,3.5562
2019-04-20T02:34:28.513Z,3.5562
2019-04-20T02:35:36.712Z,3.5260
2019-04-20T02:36:20.858Z,3.5260
2019-04-20T02:37:08.879Z,3.5260
2019-04-20T02:39:05.193Z,3.5059
2019-04-20T02:40:47.535Z,3.4756
2019-04-20T02:41:18.120Z,3.4958
2019-04-20T02:44:09.886Z,3.4756
2019-04-20T02:44:50.023Z,3.4656
2019-04-20T02:46:34.629Z,3.4454
2019-04-20T02:47:35.046Z,3.4454
2019-04-20T02:48:14.062Z,3.4354
2019-04-20T02:49:10.120Z,3.4354
2019-04-20T02:49:59.180Z,3.4354
2019-04-20T02:50:50.191Z,3.4052
2019-04-20T02:51:47.623Z,3.4052
2019-04-20T02:52:38.217Z,3.3951
2019-04-20T02:53:33.029Z,3.3649
2019-04-20T02:55:14.515Z,3.2944
2019-04-20T02:56:06.606Z,3.2843
2019-04-20T02:57:00.659Z,3.2642
2019-04-20T02:58:41.961Z,3.1836
2019-04-20T03:01:07.078Z,3.1030
2019-04-20T03:01:53.491Z,3.0728
2019-04-20T03:02:41.189Z,3.0426
2019-04-20T03:03:26.738Z,3.0124
2019-04-20T03:04:20.286Z,2.9822
2019-04-20T03:05:13.676Z,2.9520
2019-04-20T03:06:04.452Z,2.9318
2019-04-20T03:06:59.392Z,2.9016
2019-04-20T03:07:57.616Z,2.8915
2019-04-20T03:08:47.573Z,2.8613
2019-04-20T03:09:39.986Z,2.8513
2019-04-20T03:10:34.278Z,2.8210
2019-04-20T03:11:32.496Z,2.8009
2019-04-20T03:12:18.742Z,2.7908
2019-04-20T03:13:09.803Z,2.7505
2019-04-20T03:13:57.816Z,2.7203
2019-04-20T03:14:44.742Z,2.7103
2019-04-20T03:15:41.805Z,2.7103
2019-04-20T03:16:31.661Z,2.6901
2019-04-20T03:17:27.262Z,2.6801
2019-04-20T03:18:13.882Z,2.6801
2019-04-20T03:19:03.053Z,2.6801
2019-04-20T03:19:52.539Z,2.6700
2019-04-20T03:20:53.423Z,2.6801
2019-04-20T03:21:47.948Z,2.6801
2019-04-20T03:23:01.068Z,2.6700
2019-04-20T03:23:31.168Z,2.6801
2019-04-20T03:24:26.591Z,2.6700
2019-04-20T03:25:13.540Z,2.6498
2019-04-20T03:26:05.389Z,2.6498
2019-04-20T03:26:54.646Z,2.6498
2019-04-20T03:27:41.451Z,2.6700
2019-04-20T03:28:36.811Z,2.6700
2019-04-20T03:29:23.794Z,2.6700
2019-04-20T03:31:07.458Z,2.6700
2019-04-20T03:33:12.637Z,2.6700
2019-04-20T03:34:13.373Z,2.6498
2019-04-20T03:35:00.834Z,2.6498
2019-04-20T03:35:34.255Z,2.6398
2019-04-20T03:36:34.972Z,2.6498
2019-04-20T03:37:26.734Z,2.6398
2019-04-20T03:38:10.665Z,2.6398
2019-04-20T03:38:57.393Z,2.6196
2019-04-20T03:39:51.434Z,2.6196
2019-04-20T03:40:37.332Z,2.6096
2019-04-20T03:41:25.485Z,2.6196
2019-04-20T03:42:09.337Z,2.6096
2019-04-20T03:42:56.984Z,2.6196
2019-04-20T03:43:45.684Z,2.6196
2019-04-20T03:44:34.202Z,2.6196
2019-04-20T03:45:25.412Z,2.6196
2019-04-20T03:46:17.427Z,2.6398
2019-04-20T03:47:08.799Z,2.6196
2019-04-20T03:48:11.588Z,2.6398
2019-04-20T03:49:05.899Z,2.6398
2019-04-20T03:50:02.631Z,2.6096
2019-04-20T03:50:53.272Z,2.6096
2019-04-20T03:51:46.967Z,2.6398
2019-04-20T03:52:34.273Z,2.5995
2019-04-20T03:53:29.806Z,2.5995
2019-04-20T03:54:13.537Z,2.5995
2019-04-20T03:55:12.836Z,2.5592
2019-04-20T03:55:58.448Z,2.5693
2019-04-20T03:56:49.579Z,2.5693
2019-04-20T03:57:49.790Z,2.5693
2019-04-20T03:58:33.521Z,2.5592
2019-04-20T03:59:21.268Z,2.5995
2019-04-20T04:00:16.304Z,2.5995
2019-04-20T04:01:12.641Z,2.5995
2019-04-20T04:03:09.352Z,2.6196
2019-04-20T04:03:53.262Z,2.6196
2019-04-20T04:04:39.074Z,2.6498
2019-04-20T04:05:27.534Z,2.6700
2019-04-20T04:06:12.923Z,2.6700
2019-04-20T04:06:57.735Z,2.6801
2019-04-20T04:07:55.872Z,2.6901
2019-04-20T04:08:36.431Z,2.7103
2019-04-20T04:09:30.538Z,2.7405
2019-04-20T04:10:25.892Z,2.7707
2019-04-20T04:11:21.857Z,2.8210
2019-04-20T04:12:10.110Z,2.8311
2019-04-20T04:12:49.830Z,2.8311
2019-04-20T04:13:39.762Z,2.8613
2019-04-20T04:14:26.145Z,2.8915
2019-04-20T04:15:12.709Z,2.9016
2019-04-20T04:16:06.107Z,2.9218
2019-04-20T04:16:54.721Z,2.9520
2019-04-20T04:17:44.995Z,3.0023
2019-04-20T04:18:39.483Z,3.0325
2019-04-20T04:19:30.236Z,3.0426
2019-04-20T04:20:19.711Z,3.0527
2019-04-20T04:21:12.885Z,3.0728
2019-04-20T04:22:12.619Z,3.0527
2019-04-20T04:23:10.479Z,3.0829
2019-04-20T04:23:58.792Z,3.0728
2019-04-20T04:24:52.177Z,3.0829
2019-04-20T04:25:42.743Z,3.0527
2019-04-20T04:26:34.163Z,3.0527
2019-04-20T04:27:33.598Z,3.0527
2019-04-20T04:28:13.767Z,3.0426
2019-04-20T04:29:13.559Z,3.0325
2019-04-20T04:30:04.306Z,3.0124
2019-04-20T04:30:58.132Z,3.0325
2019-04-20T04:31:59.538Z,3.0527
2019-04-20T04:33:03.101Z,3.0728
2019-04-20T04:34:22.914Z,3.0829
2019-04-20T04:35:10.623Z,3.1030
2019-04-20T04:36:00.372Z,3.0829
2019-04-20T04:36:59.347Z,3.0829
2019-04-20T04:37:47.118Z,3.0829
2019-04-20T04:38:42.464Z,3.0728
2019-04-20T04:39:30.920Z,3.0728
2019-04-20T04:40:36.979Z,3.0527
2019-04-20T04:41:27.086Z,3.0426
2019-04-20T04:42:11.572Z,3.0325
2019-04-20T04:42:57.891Z,3.0124
2019-04-20T04:43:49.445Z,3.0124
2019-04-20T04:44:34.333Z,3.0124
2019-04-20T04:45:15.509Z,3.0023
2019-04-20T04:46:04.219Z,3.0023
2019-04-20T04:46:57.586Z,2.9822
2019-04-20T04:47:42.908Z,2.9721
2019-04-20T04:48:35.010Z,2.9721
2019-04-20T04:49:28.440Z,2.9520
2019-04-20T04:50:17.566Z,2.9318
2019-04-20T04:51:12.880Z,2.9218
2019-04-20T04:52:05.197Z,2.9218
2019-04-20T04:52:58.848Z,2.9318
2019-04-20T04:53:47.955Z,2.9218
2019-04-20T04:54:42.281Z,2.9218
2019-04-20T04:55:34.810Z,2.9520
2019-04-20T04:56:18.065Z,2.9520
2019-04-20T04:57:05.339Z,2.9721
2019-04-20T04:57:51.601Z,2.9721
2019-04-20T04:58:38.491Z,2.9520
2019-04-20T04:59:25.690Z,2.9822
2019-04-20T05:00:17.939Z,2.9822
2019-04-20T05:01:08.080Z,2.9822
2019-04-20T05:01:58.152Z,3.0023
2019-04-20T05:02:50.592Z,3.0023
2019-04-20T05:04:48.531Z,3.0023
2019-04-20T05:05:35.964Z,3.0124
2019-04-20T05:06:29.221Z,3.0325
2019-04-20T05:07:15.190Z,3.0426
2019-04-20T05:08:02.748Z,3.0527
2019-04-20T05:08:51.445Z,3.0829
2019-04-20T05:09:39.846Z,3.1030
2019-04-20T05:10:28.677Z,3.1332
2019-04-20T05:11:15.310Z,3.1635
2019-04-20T05:12:07.247Z,3.1635
2019-04-20T05:12:54.782Z,3.1937
2019-04-20T05:13:50.053Z,3.2138
2019-04-20T05:14:46.060Z,3.2239
2019-04-20T05:15:41.734Z,3.2339
2019-04-20T05:16:39.830Z,3.2843
2019-04-20T05:17:32.392Z,3.3145
2019-04-20T05:18:19.484Z,3.3447
2019-04-20T05:19:15.890Z,3.3749
2019-04-20T05:20:02.594Z,3.3951
2019-04-20T05:21:00.312Z,3.4152
2019-04-20T05:21:57.439Z,3.4354
2019-04-20T05:22:41.662Z,3.4454
2019-04-20T05:23:24.308Z,3.4454
2019-04-20T05:24:20.768Z,3.4756
2019-04-20T05:25:11.928Z,3.4656
2019-04-20T05:26:08.488Z,3.5059
2019-04-20T05:27:01.738Z,3.5059
2019-04-20T05:27:51.871Z,3.5461
2019-04-20T05:28:33.435Z,3.5461
2019-04-20T05:29:19.688Z,3.5562
2019-04-20T05:30:05.695Z,3.5764
2019-04-20T05:30:57.622Z,3.5965
2019-04-20T05:31:49.391Z,3.6166
2019-04-20T05:32:44.596Z,3.6469
2019-04-20T05:33:42.320Z,3.6871
2019-04-20T05:34:40.056Z,3.7274
2019-04-20T05:35:33.636Z,3.7677
2019-04-20T05:36:19.302Z,3.8281
2019-04-20T05:37:20.943Z,3.8684
2019-04-20T05:38:11.923Z,3.9188
2019-04-20T05:38:58.223Z,3.9590
2019-04-20T05:39:50.122Z,4.0094
2019-04-20T05:40:39.026Z,4.0497
2019-04-20T05:41:29.462Z,4.1000
2019-04-20T05:42:23.434Z,4.1302
2019-04-20T05:43:10.674Z,4.1705
2019-04-20T05:44:02.107Z,4.2209
2019-04-20T05:44:55.936Z,4.2310
2019-04-20T05:45:45.345Z,4.2612
2019-04-20T05:46:40.940Z,4.3015
2019-04-20T05:47:33.460Z,4.3115
2019-04-20T05:48:19.701Z,4.3719
2019-04-20T05:49:20.683Z,4.3820
2019-04-20T05:50:01.013Z,4.4122
2019-04-20T05:50:58.729Z,4.4424
2019-04-20T05:51:49.905Z,4.4928
2019-04-20T05:52:50.207Z,4.5029
2019-04-20T05:53:33.973Z,4.5532
2019-04-20T05:54:31.096Z,4.5834
2019-04-20T05:55:20.921Z,4.6237
2019-04-20T05:56:07.296Z,4.6640
2019-04-20T05:57:07.744Z,4.7043
2019-04-20T05:58:00.707Z,4.7345
2019-04-20T05:58:45.050Z,4.7546
2019-04-20T05:59:45.412Z,4.8050
2019-04-20T06:00:33.561Z,4.8654
2019-04-20T06:01:20.224Z,4.9258
2019-04-20T06:02:15.998Z,4.9863
2019-04-20T06:03:01.724Z,5.1071
2019-04-20T06:03:53.873Z,5.2481
2019-04-20T06:05:01.799Z,5.4294
2019-04-20T06:05:48.877Z,5.6509
2019-04-20T06:06:33.147Z,5.8322
2019-04-20T06:07:25.205Z,6.0739
2019-04-20T06:08:15.601Z,6.2955
2019-04-20T06:09:11.074Z,6.5170
2019-04-20T06:09:59.671Z,6.7688
2019-04-20T06:10:52.146Z,6.9904
2019-04-20T06:11:44.211Z,7.2018
2019-04-20T06:12:35.751Z,7.4234
2019-04-20T06:13:17.362Z,7.6550
2019-04-20T06:14:07.034Z,7.8665
2019-04-20T06:15:05.585Z,8.0881
2019-04-20T06:15:53.958Z,8.2996
2019-04-20T06:16:56.929Z,8.5110
2019-04-20T06:17:46.199Z,8.7427
2019-04-20T06:18:32.736Z,8.9743
2019-04-20T06:19:39.548Z,9.2160
2019-04-20T06:20:21.538Z,9.4275
2019-04-20T06:21:23.509Z,9.6390
2019-04-20T06:22:04.695Z,9.8605
2019-04-20T06:23:01.346Z,10.0519
2019-04-20T06:23:53.202Z,10.2634
2019-04-20T06:24:44.904Z,10.4446
2019-04-20T06:25:54.818Z,10.6360
2019-04-20T06:27:11.044Z,11.0388
2019-04-20T06:28:02.066Z,11.2201
2019-04-20T06:28:49.012Z,11.4014
2019-04-20T06:29:48.360Z,11.5726
2019-04-20T06:30:30.893Z,11.7538
2019-04-20T06:31:34.182Z,11.9351
2019-04-20T06:32:21.487Z,12.0963
2019-04-20T06:33:26.267Z,12.2775
2019-04-20T06:34:20.136Z,12.4487
2019-04-20T06:35:00.546Z,12.6099
2019-04-20T06:36:48.589Z,12.9724
2019-04-20T06:37:36.268Z,13.1537
2019-04-20T06:38:46.833Z,13.3350
2019-04-20T06:39:20.301Z,13.5162
2019-04-20T06:40:31.977Z,13.6673
2019-04-20T06:41:16.507Z,13.8083
2019-04-20T06:42:08.429Z,13.9594
2019-04-20T06:42:39.708Z,14.0802
2019-04-20T06:43:40.982Z,14.2010
2019-04-20T06:44:32.260Z,14.3521
2019-04-20T06:45:27.719Z,14.4830
2019-04-20T06:46:20.244Z,14.6240
2019-04-20T06:48:01.035Z,14.9564
2019-04-20T06:48:59.248Z,15.1477
2019-04-20T06:49:36.816Z,15.3088
2019-04-20T06:50:29.159Z,15.5203
2019-04-20T06:51:23.364Z,15.7016
2019-04-20T06:52:23.145Z,15.8426
2019-04-20T06:53:12.925Z,16.0138
2019-04-20T06:53:49.645Z,16.1649
2019-04-20T06:54:48.726Z,16.3260
2019-04-20T06:55:43.006Z,16.4871
2019-04-20T06:56:29.403Z,16.6080
2019-04-20T06:57:25.580Z,16.7490
2019-04-20T06:58:31.903Z,16.8900
2019-04-20T06:59:12.523Z,17.0511
2019-04-20T07:00:01.220Z,17.1921
2019-04-20T07:00:46.462Z,17.3129
2019-04-20T07:01:48.969Z,17.4539
2019-04-20T07:02:38.650Z,17.5748
2019-04-20T07:03:36.079Z,17.6654
2019-04-20T07:04:33.533Z,17.7359
2019-04-20T07:05:18.965Z,17.8467
2019-04-20T07:06:16.854Z,17.9373
2019-04-20T07:06:56.588Z,18.0481
2019-04-20T07:07:43.352Z,18.1891
2019-04-20T07:08:56.647Z,18.3502
2019-04-20T07:09:31.124Z,18.4912
2019-04-20T07:10:19.515Z,18.6322
2019-04-20T07:11:11.358Z,18.7732
2019-04-20T07:11:59.499Z,18.8638
2019-04-20T07:12:46.960Z,18.9645
2019-04-20T07:13:37.405Z,19.0753
2019-04-20T07:14:19.128Z,19.1760
2019-04-20T07:15:16.316Z,19.2868
2019-04-20T07:16:15.836Z,19.4077
2019-04-20T07:17:10.733Z,19.5084
2019-04-20T07:17:57.023Z,19.6393
2019-04-20T07:18:50.922Z,19.7400
2019-04-20T07:19:36.254Z,19.8407
2019-04-20T07:20:27.813Z,19.9213
2019-04-20T07:21:37.502Z,20.0320
2019-04-20T07:22:25.296Z,20.1328
2019-04-20T07:23:18.432Z,20.2637
2019-04-20T07:24:03.564Z,20.4349
2019-04-20T07:24:54.796Z,20.5960
2019-04-20T07:25:42.228Z,20.7974
2019-04-20T07:26:37.270Z,20.9888
2019-04-20T07:27:23.965Z,21.2204
2019-04-20T07:28:19.697Z,21.4218
2019-04-20T07:29:13.592Z,21.6434
2019-04-20T07:29:58.952Z,21.8851
2019-04-20T07:30:45.406Z,22.1268
2019-04-20T07:31:39.347Z,22.3785
2019-04-20T07:32:38.781Z,22.6202
2019-04-20T07:33:28.348Z,22.8519
2019-04-20T07:34:15.836Z,23.0936
2019-04-20T07:35:09.817Z,23.3051
2019-04-20T07:35:56.218Z,23.5367
2019-04-20T07:37:04.856Z,23.7381
2019-04-20T07:38:41.834Z,24.1309
2019-04-20T07:39:28.079Z,24.3524
2019-04-20T07:40:23.170Z,24.5035
2019-04-20T07:41:12.938Z,24.7351
2019-04-20T07:42:10.787Z,24.9164
2019-04-20T07:42:57.179Z,25.1077
2019-04-20T07:43:52.918Z,25.3091
2019-04-20T07:44:42.553Z,25.4602
2019-04-20T07:45:30.861Z,25.6012
2019-04-20T07:46:37.541Z,25.7523
2019-04-20T07:47:23.713Z,25.9134
2019-04-20T07:48:54.303Z,26.1853
2019-04-20T07:49:46.991Z,26.3364
2019-04-20T07:50:32.245Z,26.5076
2019-04-20T07:51:17.347Z,26.6586
2019-04-20T07:52:01.658Z,26.8500
2019-04-20T07:53:01.510Z,27.0212
2019-04-20T07:53:59.503Z,27.2025
2019-04-20T07:55:12.179Z,27.3737
2019-04-20T07:55:58.128Z,27.4945
2019-04-20T07:56:37.659Z,27.6355
2019-04-20T07:57:26.694Z,27.7664
2019-04-20T07:58:13.323Z,27.8873
2019-04-20T07:58:55.220Z,28.0685
2019-04-20T08:00:01.141Z,28.2498
2019-04-20T08:01:02.551Z,28.3908
2019-04-20T08:01:56.123Z,28.5117
2019-04-20T08:02:45.058Z,28.6224
2019-04-20T08:03:33.783Z,28.6728
2019-04-20T08:04:20.873Z,28.7534
2019-04-20T08:05:08.491Z,28.8239
2019-04-20T08:05:57.269Z,28.8943
2019-04-20T08:06:45.434Z,28.9749
2019-04-20T08:07:39.167Z,29.0756
2019-04-20T08:08:32.661Z,29.2267
2019-04-20T08:09:21.989Z,29.3777
2019-04-20T08:10:06.368Z,29.4986
2019-04-20T08:11:12.362Z,29.6597
2019-04-20T08:12:14.199Z,29.7906
2019-04-20T08:13:02.239Z,29.9417
2019-04-20T08:13:51.211Z,30.0928
2019-04-20T08:14:46.801Z,30.2539
2019-04-20T08:15:42.742Z,30.4553
2019-04-20T08:16:33.595Z,30.6467
2019-04-20T08:17:21.317Z,30.8078
2019-04-20T08:18:08.845Z,30.9186
2019-04-20T08:18:59.469Z,31.0596
2019-04-20T08:19:48.483Z,31.2006
2019-04-20T08:20:41.572Z,31.3315
2019-04-20T08:21:35.174Z,31.4725
2019-04-20T08:22:26.758Z,31.5933
2019-04-20T08:23:17.217Z,31.6437
2019-04-20T08:24:57.681Z,31.6235
2019-04-20T08:25:44.561Z,31.6135
2019-04-20T08:26:31.099Z,31.6235
2019-04-20T08:27:17.941Z,31.6235
2019-04-20T08:28:13.560Z,31.7041
2019-04-20T08:29:03.347Z,31.7645
2019-04-20T08:29:59.022Z,31.8048
2019-04-20T08:30:58.236Z,31.8652
2019-04-20T08:31:46.233Z,31.9559
2019-04-20T08:33:35.017Z,32.1472
2019-04-20T08:34:33.640Z,32.2882
2019-04-20T08:35:23.919Z,32.4091
2019-04-20T08:36:11.872Z,32.5803
2019-04-20T08:37:01.407Z,32.7313
2019-04-20T08:38:14.885Z,32.8522
2019-04-20T08:39:45.122Z,32.9630
2019-04-20T08:40:31.408Z,33.0234
2019-04-20T08:41:17.939Z,33.0435
2019-04-20T08:42:10.192Z,33.0435
2019-04-20T08:43:11.929Z,33.0939
2019-04-20T08:45:04.174Z,33.3054
2019-04-20T08:45:41.702Z,33.3859
2019-04-20T08:46:34.415Z,33.4564
2019-04-20T08:47:27.385Z,33.5672
2019-04-20T08:48:17.337Z,33.6679
2019-04-20T08:49:08.374Z,33.6880
2019-04-20T08:50:03.811Z,33.7384
2019-04-20T08:50:50.667Z,33.7988
2019-04-20T08:52:55.634Z,33.8391
2019-04-20T08:53:27.637Z,33.8995
2019-04-20T08:54:14.127Z,33.9902
2019-04-20T08:55:04.974Z,34.0808
2019-04-20T08:55:50.091Z,34.2117
2019-04-20T08:56:36.001Z,34.3628
2019-04-20T08:57:13.410Z,34.5139
2019-04-20T08:58:00.012Z,34.6649
2019-04-20T08:58:46.382Z,34.7958
2019-04-20T08:59:35.052Z,34.9570
2019-04-20T09:00:29.311Z,35.1181
2019-04-20T09:01:20.226Z,35.2591
2019-04-20T09:02:09.013Z,35.3900
2019-04-20T09:03:06.737Z,35.4605
2019-04-20T09:04:00.199Z,35.5109
2019-04-20T09:04:49.037Z,35.5209
2019-04-20T09:05:42.464Z,35.4807
2019-04-20T09:06:36.463Z,35.4807
2019-04-20T09:07:20.234Z,35.5209
2019-04-20T09:08:14.632Z,35.5310
2019-04-20T09:09:20.704Z,35.5209
2019-04-20T09:10:16.646Z,35.5209
2019-04-20T09:11:04.237Z,35.5814
2019-04-20T09:11:54.282Z,35.6116
2019-04-20T09:12:40.792Z,35.6619
2019-04-20T09:13:26.954Z,35.6418
2019-04-20T09:14:09.345Z,35.6015
2019-04-20T09:14:57.327Z,35.5612
2019-04-20T09:15:44.736Z,35.5109
2019-04-20T09:16:40.901Z,35.4404
2019-04-20T09:17:27.218Z,35.4102
2019-04-20T09:18:22.052Z,35.4504
2019-04-20T09:19:09.411Z,35.5109
2019-04-20T09:20:04.710Z,35.5209
2019-04-20T09:20:55.841Z,35.5814
2019-04-20T09:21:48.302Z,35.7022
2019-04-20T09:22:40.879Z,35.8835
2019-04-20T09:23:36.568Z,36.0849
2019-04-20T09:24:38.175Z,36.2662
2019-04-20T09:25:46.867Z,36.3467
2019-04-20T09:26:16.182Z,36.3669
2019-04-20T09:27:04.541Z,36.4273
2019-04-20T09:27:50.188Z,36.5079
2019-04-20T09:28:40.546Z,36.5683
2019-04-20T09:29:35.750Z,36.5884
2019-04-20T09:30:30.621Z,36.5884
2019-04-20T09:31:22.651Z,36.6388
2019-04-20T09:32:20.898Z,36.7194
2019-04-20T09:33:09.844Z,36.8604
2019-04-20T09:34:01.517Z,36.9308
2019-04-20T09:34:54.342Z,36.9913
2019-04-20T09:35:45.880Z,37.0215
2019-04-20T09:36:35.289Z,37.1121
2019-04-20T09:37:27.893Z,37.2128
2019-04-20T09:38:15.512Z,37.3639
2019-04-20T09:39:01.083Z,37.5150
2019-04-20T09:40:10.935Z,37.6459
2019-04-20T09:40:50.771Z,37.7466
2019-04-20T09:41:50.784Z,37.8372
2019-04-20T09:42:18.327Z,37.8574
2019-04-20T09:43:04.707Z,37.8271
2019-04-20T09:43:52.480Z,37.8372
2019-04-20T09:44:42.669Z,37.8574
2019-04-20T09:45:38.200Z,37.8674
2019-04-20T09:46:24.277Z,37.9178
2019-04-20T09:47:12.340Z,37.9681
2019-04-20T09:48:00.561Z,38.0386
2019-04-20T09:48:55.702Z,38.0890
2019-04-20T09:49:54.127Z,38.1998
2019-04-20T09:50:56.101Z,38.3105
2019-04-20T09:51:40.070Z,38.4012
2019-04-20T09:52:29.110Z,38.5220
2019-04-20T09:53:24.808Z,38.5825
2019-04-20T09:54:18.630Z,38.6731
2019-04-20T09:55:07.842Z,38.7637
2019-04-20T09:56:01.928Z,38.7738
2019-04-20T09:56:55.593Z,38.7134
2019-04-20T09:57:46.709Z,38.6932
2019-04-20T09:58:31.638Z,38.7436
2019-04-20T09:59:28.387Z,38.8040
2019-04-20T10:00:19.319Z,38.8644
2019-04-20T10:01:08.423Z,38.9450
2019-04-20T10:01:50.814Z,38.9853
2019-04-20T10:02:39.415Z,39.0155
2019-04-20T10:03:27.162Z,39.0356
2019-04-20T10:04:13.276Z,39.1162
2019-04-20T10:05:00.279Z,39.1766
2019-04-20T10:05:47.602Z,39.2471
2019-04-20T10:06:36.146Z,39.3579
2019-04-20T10:07:26.152Z,39.4083
2019-04-20T10:08:15.421Z,39.5090
2019-04-20T10:09:03.865Z,39.5291
2019-04-20T10:09:52.078Z,39.5795
2019-04-20T10:10:42.665Z,39.5996
2019-04-20T10:11:31.840Z,39.6701
2019-04-20T10:12:19.641Z,39.6802
2019-04-20T10:13:07.347Z,39.6298
2019-04-20T10:13:54.383Z,39.5190
2019-04-20T10:14:42.436Z,39.4284
2019-04-20T10:15:30.958Z,39.3378
2019-04-20T10:16:17.799Z,39.3076
2019-04-20T10:17:05.690Z,39.3378
2019-04-20T10:17:53.942Z,39.3579
2019-04-20T10:18:45.486Z,39.3781
2019-04-20T10:19:35.610Z,39.3982
2019-04-20T10:20:29.796Z,39.3982
2019-04-20T10:21:15.888Z,39.4385
2019-04-20T10:22:02.562Z,39.3982
2019-04-20T10:22:48.911Z,39.4083
2019-04-20T10:23:36.529Z,39.4586
2019-04-20T10:24:24.293Z,39.5291
2019-04-20T10:25:10.878Z,39.5493
2019-04-20T10:25:58.442Z,39.5493
2019-04-20T10:26:46.294Z,39.6198
2019-04-20T10:27:32.782Z,39.6701
2019-04-20T10:28:19.473Z,39.7205
2019-04-20T10:29:05.791Z,39.8111
2019-04-20T10:29:53.467Z,39.9219
2019-04-20T10:30:40.878Z,40.0226
2019-04-20T10:31:28.510Z,40.0427
2019-04-20T10:32:16.045Z,40.0024
2019-04-20T10:33:05.664Z,39.9319
2019-04-20T10:33:53.466Z,39.8615
2019-04-20T10:34:40.926Z,39.8514
2019-04-20T10:35:27.594Z,39.8917
2019-04-20T10:36:15.315Z,39.9319
2019-04-20T10:37:01.739Z,39.9622
2019-04-20T10:37:49.325Z,39.9722
2019-04-20T10:38:37.614Z,39.9622
2019-04-20T10:39:24.733Z,39.8917
2019-04-20T10:40:11.503Z,39.8514
2019-04-20T10:41:08.175Z,39.8715
2019-04-20T10:41:55.351Z,39.9017
2019-04-20T10:42:41.930Z,39.9420
2019-04-20T10:43:28.320Z,39.9924
2019-04-20T10:44:14.677Z,39.9924
2019-04-20T10:45:02.912Z,40.0024
2019-04-20T10:45:50.927Z,40.1132
2019-04-20T10:46:38.877Z,40.1636
2019-04-20T10:47:25.434Z,40.2441
2019-04-20T10:48:13.154Z,40.2844